createdAt,value
2023-03-18T00:02:03.165Z,7.30
2023-03-18T00:04:30.596Z,6.80
2023-03-18T00:06:57.897Z,7.25
2023-03-18T00:09:25.028Z,6.50
2023-03-18T00:11:52.231Z,7.10
2023-03-18T00:14:19.473Z,5.70
2023-03-18T00:16:46.458Z,5.90
2023-03-18T00:19:13.420Z,6.13
2023-03-18T00:21:40.433Z,5.13
2023-03-18T00:24:07.698Z,5.60
2023-03-18T00:26:34.639Z,5.63
2023-03-18T00:29:01.962Z,6.32
2023-03-18T00:31:29.796Z,5.50
2023-03-18T00:33:58.025Z,6.53
2023-03-18T00:36:25.659Z,6.80
2023-03-18T00:38:57.616Z,6.38
2023-03-18T00:41:28.920Z,6.47
2023-03-18T00:43:56.773Z,5.85
2023-03-18T00:46:36.990Z,6.43
2023-03-18T00:49:07.137Z,6.93
2023-03-18T00:51:37.422Z,6.40
2023-03-18T00:54:07.913Z,6.45
2023-03-18T00:56:37.551Z,6.25
2023-03-18T00:59:06.600Z,6.15
2023-03-18T01:01:34.094Z,7.00
2023-03-18T01:04:01.969Z,6.65
2023-03-18T01:06:34.458Z,6.72
2023-03-18T01:09:02.681Z,5.47
2023-03-18T01:11:30.125Z,5.93
2023-03-18T01:13:59.282Z,6.07
2023-03-18T01:16:26.514Z,6.10
2023-03-18T01:18:53.976Z,5.47
2023-03-18T01:21:21.245Z,6.18
2023-03-18T01:23:55.393Z,6.50
2023-03-18T01:26:23.067Z,6.75
2023-03-18T01:28:50.130Z,5.85
2023-03-18T01:31:17.665Z,6.63
2023-03-18T01:33:47.731Z,6.30
2023-03-18T01:36:15.480Z,6.13
2023-03-18T01:38:42.884Z,6.05
2023-03-18T01:41:12.729Z,6.45
2023-03-18T01:43:42.795Z,6.05
2023-03-18T01:46:32.505Z,6.45
2023-03-18T01:49:08.165Z,6.65
2023-03-18T01:51:35.486Z,6.30
2023-03-18T01:54:05.582Z,5.50
2023-03-18T01:56:37.056Z,6.63
2023-03-18T01:59:06.015Z,5.13
2023-03-18T02:01:48.097Z,6.05
2023-03-18T02:06:44.096Z,6.53
2023-03-18T02:09:12.522Z,6.55
2023-03-18T02:11:46.272Z,6.60
2023-03-18T02:14:16.625Z,6.13
2023-03-18T02:16:54.401Z,6.18
2023-03-18T02:20:20.729Z,6.38
2023-03-18T02:22:57.585Z,8.13
2023-03-18T02:25:53.814Z,7.97
2023-03-18T02:28:26.166Z,6.63
2023-03-18T02:30:58.108Z,6.20
2023-03-18T02:33:32.071Z,7.68
2023-03-18T02:36:11.813Z,6.60
2023-03-18T02:38:45.933Z,6.43
2023-03-18T02:41:22.692Z,6.60
2023-03-18T02:43:50.776Z,6.22
2023-03-18T02:46:41.752Z,7.28
2023-03-18T02:49:10.546Z,6.93
2023-03-18T02:51:38.432Z,7.30
2023-03-18T02:54:16.348Z,6.35
2023-03-18T02:56:44.615Z,5.50
2023-03-18T02:59:13.148Z,6.82
2023-03-18T03:01:45.032Z,6.65
2023-03-18T03:04:14.598Z,7.00
2023-03-18T03:06:42.816Z,6.70
2023-03-18T03:11:41.825Z,7.00
2023-03-18T03:14:15.418Z,7.10
2023-03-18T03:16:43.784Z,6.80
2023-03-18T03:19:11.030Z,7.63
2023-03-18T03:21:38.310Z,7.32
2023-03-18T03:24:06.986Z,7.18
2023-03-18T03:26:34.991Z,8.18
2023-03-18T03:29:04.411Z,6.60
2023-03-18T03:31:31.724Z,7.25
2023-03-18T03:33:59.663Z,6.53
2023-03-18T03:36:27.050Z,7.57
2023-03-18T03:38:56.667Z,6.63
2023-03-18T03:41:23.564Z,7.00
2023-03-18T03:43:50.543Z,5.63
2023-03-18T03:46:17.592Z,6.93
2023-03-18T03:48:44.818Z,6.55
2023-03-18T03:51:14.807Z,7.05
2023-03-18T03:53:41.894Z,6.03
2023-03-18T03:56:09.218Z,6.40
2023-03-18T03:58:36.374Z,5.25
2023-03-18T04:01:06.402Z,6.10
2023-03-18T04:06:01.599Z,6.57
2023-03-18T04:08:31.622Z,6.25
2023-03-18T04:10:59.322Z,7.05
2023-03-18T04:13:26.437Z,8.40
2023-03-18T04:15:54.753Z,6.60
2023-03-18T04:18:21.691Z,7.15
2023-03-18T04:20:48.644Z,6.72
2023-03-18T04:23:28.310Z,7.03
2023-03-18T04:25:55.268Z,8.20
2023-03-18T04:28:22.347Z,7.32
2023-03-18T04:30:50.537Z,6.82
2023-03-18T04:33:19.412Z,7.45
2023-03-18T04:35:48.617Z,6.68
2023-03-18T04:38:17.946Z,8.13
2023-03-18T04:40:47.612Z,6.50
2023-03-18T04:43:15.240Z,7.93
2023-03-18T04:45:42.170Z,6.80
2023-03-18T04:48:10.233Z,6.47
2023-03-18T04:50:40.774Z,7.15
2023-03-18T04:53:11.386Z,7.03
2023-03-18T04:55:39.506Z,7.28
2023-03-18T05:00:40.551Z,6.97
2023-03-18T05:03:18.343Z,6.70
2023-03-18T05:05:45.781Z,8.52
2023-03-18T05:08:16.289Z,6.57
2023-03-18T05:10:43.500Z,6.97
2023-03-18T05:13:13.134Z,6.68
2023-03-18T05:15:40.071Z,7.47
2023-03-18T05:18:07.052Z,6.68
2023-03-18T05:20:34.655Z,6.57
2023-03-18T05:23:02.050Z,7.50
2023-03-18T05:25:40.339Z,7.07
2023-03-18T05:28:08.854Z,7.13
2023-03-18T05:30:44.721Z,7.00
2023-03-18T05:33:15.277Z,9.57
2023-03-18T05:35:48.606Z,8.40
2023-03-18T05:38:19.653Z,7.55
2023-03-18T05:40:46.983Z,8.23
2023-03-18T05:43:21.872Z,8.80
2023-03-18T05:45:52.575Z,7.80
2023-03-18T05:48:25.601Z,7.65
2023-03-18T05:50:58.708Z,7.15
2023-03-18T05:53:27.736Z,8.32
2023-03-18T05:56:07.863Z,7.70
2023-03-18T05:58:35.075Z,8.13
2023-03-18T06:01:20.363Z,9.13
2023-03-18T06:03:47.675Z,8.20
2023-03-18T06:06:14.645Z,8.00
2023-03-18T06:08:41.779Z,8.30
2023-03-18T06:11:09.261Z,8.88
2023-03-18T06:13:36.413Z,9.77
2023-03-18T06:16:03.938Z,9.18
2023-03-18T06:18:31.609Z,9.82
2023-03-18T06:20:58.918Z,8.75
2023-03-18T06:23:25.800Z,9.02
2023-03-18T06:25:53.058Z,8.93
2023-03-18T06:28:25.406Z,9.52
2023-03-18T06:30:58.598Z,9.60
2023-03-18T06:33:27.223Z,9.88
2023-03-18T06:35:55.016Z,9.55
2023-03-18T06:38:22.965Z,9.00
2023-03-18T06:40:51.300Z,9.65
2023-03-18T06:43:18.618Z,9.68
2023-03-18T06:45:46.311Z,8.73
2023-03-18T06:48:13.763Z,8.52
2023-03-18T06:50:44.061Z,8.65
2023-03-18T06:53:25.234Z,9.38
2023-03-18T06:55:54.033Z,10.43
2023-03-18T06:58:24.788Z,9.68
2023-03-18T07:01:04.084Z,9.38
2023-03-18T07:03:36.935Z,8.77
2023-03-18T07:06:04.493Z,9.55
2023-03-18T07:08:32.446Z,8.60
2023-03-18T07:10:59.508Z,9.23
2023-03-18T07:13:27.063Z,9.63
2023-03-18T07:15:56.501Z,8.55
2023-03-18T07:18:24.627Z,9.05
2023-03-18T07:20:51.556Z,10.10
2023-03-18T07:23:18.515Z,9.38
2023-03-18T07:25:45.489Z,8.63
2023-03-18T07:28:12.649Z,9.27
2023-03-18T07:30:39.882Z,8.63
2023-03-18T07:33:06.950Z,8.93
2023-03-18T07:35:34.367Z,9.23
2023-03-18T07:38:01.459Z,9.07
2023-03-18T07:40:28.399Z,9.27
2023-03-18T07:42:55.591Z,8.20
2023-03-18T07:45:22.497Z,8.35
2023-03-18T07:47:49.562Z,8.13
2023-03-18T07:50:17.003Z,9.80
2023-03-18T07:52:44.603Z,8.07
2023-03-18T07:55:12.282Z,8.43
2023-03-18T07:57:39.970Z,9.52
2023-03-18T08:00:10.663Z,8.57
2023-03-18T08:02:41.373Z,8.27
2023-03-18T08:05:08.842Z,10.00
2023-03-18T08:07:36.706Z,9.60
2023-03-18T08:10:04.425Z,8.45
2023-03-18T08:12:45.295Z,8.77
2023-03-18T08:15:18.180Z,9.60
2023-03-18T08:17:45.316Z,8.82
2023-03-18T08:20:12.907Z,9.43
2023-03-18T08:22:40.087Z,8.18
2023-03-18T08:25:07.925Z,9.18
2023-03-18T08:27:35.130Z,9.23
2023-03-18T08:30:04.107Z,8.82
2023-03-18T08:32:31.261Z,9.27
2023-03-18T08:34:58.248Z,10.32
2023-03-18T08:37:25.915Z,9.32
2023-03-18T08:39:52.798Z,10.30
2023-03-18T08:42:19.681Z,10.38
2023-03-18T08:44:46.688Z,9.60
2023-03-18T08:47:13.674Z,10.20
2023-03-18T08:49:41.187Z,9.52
2023-03-18T08:52:08.158Z,10.07
2023-03-18T08:54:35.202Z,9.40
2023-03-18T08:57:02.618Z,8.77
2023-03-18T08:59:29.566Z,10.25
2023-03-18T09:01:56.507Z,9.23
2023-03-18T09:04:25.801Z,8.68
2023-03-18T09:06:52.790Z,10.10
2023-03-18T09:09:20.639Z,10.57
2023-03-18T09:11:48.533Z,10.13
2023-03-18T09:14:15.500Z,8.52
2023-03-18T09:16:42.437Z,10.13
2023-03-18T09:19:09.480Z,9.77
2023-03-18T09:21:36.383Z,11.30
2023-03-18T09:24:07.026Z,11.23
2023-03-18T09:26:59.606Z,13.40
2023-03-18T09:29:27.622Z,11.02
2023-03-18T09:31:55.490Z,13.20
2023-03-18T09:34:22.713Z,13.30
2023-03-18T09:36:51.578Z,16.25
2023-03-18T09:39:20.636Z,14.40
2023-03-18T09:42:10.550Z,12.73
2023-03-18T09:44:38.767Z,15.10
2023-03-18T09:47:46.452Z,14.85
2023-03-18T09:50:34.951Z,15.45
2023-03-18T09:53:33.266Z,15.20
2023-03-18T09:56:03.261Z,15.85
2023-03-18T09:59:03.387Z,14.23
2023-03-18T10:01:35.693Z,14.68
2023-03-18T10:04:26.635Z,17.08
2023-03-18T10:07:05.341Z,14.15
2023-03-18T10:09:35.594Z,15.35
2023-03-18T10:12:27.290Z,14.18
2023-03-18T10:15:12.262Z,16.33
2023-03-18T10:17:46.887Z,15.82
2023-03-18T10:20:53.227Z,15.85
2023-03-18T10:23:49.686Z,16.00
2023-03-18T10:26:37.573Z,14.90
2023-03-18T10:29:38.553Z,19.83
2023-03-18T10:32:21.130Z,18.73
2023-03-18T10:35:03.016Z,15.98
2023-03-18T10:37:44.893Z,16.08
2023-03-18T10:40:18.368Z,16.45
2023-03-18T10:42:46.213Z,17.35
2023-03-18T10:45:30.578Z,14.88
2023-03-18T10:48:21.080Z,18.63
2023-03-18T10:51:18.514Z,16.73
2023-03-18T10:54:00.829Z,16.95
2023-03-18T10:56:27.777Z,18.35
2023-03-18T10:58:56.337Z,17.48
2023-03-18T11:01:25.597Z,16.88
2023-03-18T11:04:06.586Z,16.63
2023-03-18T11:06:45.733Z,16.77
2023-03-18T11:09:30.777Z,14.65
2023-03-18T11:12:05.616Z,16.27
2023-03-18T11:14:34.039Z,16.23
2023-03-18T11:17:09.586Z,13.95
2023-03-18T11:19:47.866Z,16.65
2023-03-18T11:22:27.995Z,15.65
2023-03-18T11:25:26.720Z,17.00
2023-03-18T11:28:03.583Z,15.02
2023-03-18T11:30:46.084Z,16.13
2023-03-18T11:33:17.343Z,15.80
2023-03-18T11:35:57.716Z,16.93
2023-03-18T11:38:34.226Z,16.58
2023-03-18T11:41:16.965Z,15.98
2023-03-18T11:44:07.860Z,16.70
2023-03-18T11:46:56.689Z,12.15
2023-03-18T11:49:28.181Z,12.43
2023-03-18T11:52:10.997Z,15.55
2023-03-18T11:54:49.271Z,16.15
2023-03-18T11:57:53.187Z,15.32
2023-03-18T12:00:47.227Z,14.65
2023-03-18T12:03:26.138Z,13.35
2023-03-18T12:06:16.856Z,13.23
2023-03-18T12:09:38.412Z,10.88
2023-03-18T12:12:22.936Z,14.35
2023-03-18T12:15:49.643Z,12.40
2023-03-18T12:18:43.052Z,11.13
2023-03-18T12:21:28.958Z,12.98
2023-03-18T12:24:21.400Z,13.45
2023-03-18T12:27:07.424Z,14.10
2023-03-18T12:30:19.437Z,15.15
2023-03-18T12:33:16.978Z,16.00
2023-03-18T12:36:19.123Z,17.70
2023-03-18T12:39:22.408Z,16.20
2023-03-18T12:41:51.817Z,17.95
2023-03-18T12:45:03.274Z,15.93
2023-03-18T12:47:44.791Z,15.55
2023-03-18T12:50:20.629Z,14.18
2023-03-18T12:53:02.362Z,17.25
2023-03-18T12:55:39.888Z,16.85
2023-03-18T12:58:28.966Z,14.90
2023-03-18T13:01:07.794Z,14.48
2023-03-18T13:03:41.597Z,15.75
2023-03-18T13:06:30.965Z,14.50
2023-03-18T13:09:26.694Z,14.90
2023-03-18T13:12:23.417Z,15.07
2023-03-18T13:15:02.158Z,14.48
2023-03-18T13:17:41.349Z,15.43
2023-03-18T13:20:26.712Z,13.45
2023-03-18T13:23:24.852Z,15.07
2023-03-18T13:26:29.623Z,14.98
2023-03-18T13:29:02.307Z,15.38
2023-03-18T13:32:08.609Z,13.20
2023-03-18T13:34:56.744Z,13.88
2023-03-18T13:37:48.574Z,13.60
2023-03-18T13:40:45.090Z,13.80
2023-03-18T13:43:18.469Z,14.80
2023-03-18T13:45:52.842Z,14.60
2023-03-18T13:48:30.529Z,12.07
2023-03-18T13:50:59.396Z,13.25
2023-03-18T13:53:34.568Z,14.20
2023-03-18T13:56:07.639Z,14.20
2023-03-18T13:58:52.457Z,14.65
2023-03-18T14:01:32.723Z,13.60
2023-03-18T14:04:31.317Z,14.90
2023-03-18T14:07:20.470Z,14.35
2023-03-18T14:10:17.932Z,14.18
2023-03-18T14:12:50.159Z,15.55
2023-03-18T14:15:37.876Z,15.63
2023-03-18T14:18:20.310Z,15.13
2023-03-18T14:20:54.131Z,15.70
2023-03-18T14:23:43.525Z,15.98
2023-03-18T14:26:25.012Z,14.52
2023-03-18T14:29:36.715Z,14.82
2023-03-18T14:32:09.972Z,14.27
2023-03-18T14:34:58.634Z,14.63
2023-03-18T14:37:34.565Z,14.63
2023-03-18T14:40:22.295Z,14.80
2023-03-18T14:42:59.526Z,14.77
2023-03-18T14:45:39.044Z,14.73
2023-03-18T14:48:21.642Z,13.80
2023-03-18T14:54:05.768Z,13.70
2023-03-18T14:56:40.588Z,13.15
2023-03-18T14:59:14.686Z,13.90
2023-03-18T15:01:48.285Z,14.02
2023-03-18T15:04:28.002Z,14.25
2023-03-18T15:07:00.824Z,14.00
2023-03-18T15:09:32.493Z,13.27
2023-03-18T15:11:59.459Z,13.18
2023-03-18T15:14:30.105Z,13.98
2023-03-18T15:17:01.431Z,14.05
2023-03-18T15:19:29.228Z,13.57
2023-03-18T15:22:01.584Z,13.50
2023-03-18T15:24:28.511Z,14.60
2023-03-18T15:27:15.123Z,13.75
2023-03-18T15:29:57.574Z,13.80
2023-03-18T15:32:51.542Z,14.23
2023-03-18T15:35:27.562Z,14.20
2023-03-18T15:38:16.528Z,13.43
2023-03-18T15:41:13.277Z,12.65
2023-03-18T15:43:44.924Z,12.77
2023-03-18T15:46:32.289Z,12.82
2023-03-18T15:49:03.116Z,16.27
2023-03-18T15:51:40.198Z,12.75
2023-03-18T15:54:19.190Z,11.68
2023-03-18T15:56:49.545Z,10.93
2023-03-18T15:59:26.562Z,12.00
2023-03-18T16:01:58.330Z,11.60
2023-03-18T16:04:30.215Z,10.77
2023-03-18T16:06:57.486Z,11.57
2023-03-18T16:09:26.213Z,13.07
2023-03-18T16:12:01.067Z,10.80
2023-03-18T16:14:41.976Z,11.65
2023-03-18T16:17:13.179Z,11.25
2023-03-18T16:19:40.183Z,11.23
2023-03-18T16:22:07.279Z,12.18
2023-03-18T16:24:34.183Z,11.45
2023-03-18T16:27:03.502Z,13.25
2023-03-18T16:29:38.198Z,15.13
2023-03-18T16:32:06.287Z,14.18
2023-03-18T16:34:33.396Z,11.95
2023-03-18T16:37:00.301Z,12.43
2023-03-18T16:39:34.149Z,10.77
2023-03-18T16:42:04.154Z,11.15
2023-03-18T16:44:34.544Z,10.52
2023-03-18T16:47:02.352Z,11.60
2023-03-18T16:49:34.525Z,12.07
2023-03-18T16:52:04.031Z,11.43
2023-03-18T16:54:33.650Z,11.52
2023-03-18T16:57:04.366Z,11.50
2023-03-18T16:59:37.063Z,11.93
2023-03-18T17:02:05.002Z,11.85
2023-03-18T17:04:34.690Z,12.45
2023-03-18T17:09:32.111Z,11.82
2023-03-18T17:12:05.740Z,11.88
2023-03-18T17:14:40.471Z,12.00
2023-03-18T17:17:30.787Z,12.18
2023-03-18T17:19:57.757Z,11.60
2023-03-18T17:22:32.551Z,10.73
2023-03-18T17:25:02.543Z,11.27
2023-03-18T17:27:40.649Z,12.20
2023-03-18T17:30:19.383Z,10.20
2023-03-18T17:32:47.302Z,19.58
2023-03-18T17:35:18.216Z,30.08
2023-03-18T17:37:45.594Z,22.48
2023-03-18T17:40:19.233Z,13.23
2023-03-18T17:42:48.876Z,9.40
2023-03-18T17:45:29.763Z,10.75
2023-03-18T17:48:21.949Z,10.52
2023-03-18T17:50:56.443Z,11.05
2023-03-18T17:53:25.679Z,8.73
2023-03-18T17:55:53.626Z,9.43
2023-03-18T17:58:23.655Z,7.90
2023-03-18T18:00:51.961Z,8.57
2023-03-18T18:03:28.519Z,10.27
2023-03-18T18:05:57.113Z,9.77
2023-03-18T18:08:25.617Z,8.15
2023-03-18T18:10:58.996Z,5.53
2023-03-18T18:13:25.865Z,5.40
2023-03-18T18:15:52.851Z,4.50
2023-03-18T18:18:25.260Z,5.15
2023-03-18T18:21:00.011Z,4.95
2023-03-18T18:23:37.042Z,5.80
2023-03-18T18:26:07.671Z,5.10
2023-03-18T18:28:38.013Z,5.25
2023-03-18T18:31:09.177Z,5.40
2023-03-18T18:33:38.779Z,6.38
2023-03-18T18:36:06.998Z,6.13
2023-03-18T18:38:33.957Z,5.82
2023-03-18T18:41:01.605Z,5.55
2023-03-18T18:43:29.011Z,5.25
2023-03-18T18:45:57.733Z,8.63
2023-03-18T18:48:35.729Z,10.27
2023-03-18T18:51:04.182Z,7.28
2023-03-18T18:53:36.402Z,8.82
2023-03-18T18:56:19.847Z,12.68
2023-03-18T18:58:47.693Z,8.20
2023-03-18T19:01:15.249Z,7.03
2023-03-18T19:03:42.739Z,7.70
2023-03-18T19:06:31.441Z,7.07
2023-03-18T19:09:00.856Z,6.80
2023-03-18T19:11:29.098Z,8.80
2023-03-18T19:14:24.815Z,7.03
2023-03-18T19:16:53.858Z,5.82
2023-03-18T19:19:26.401Z,7.20
2023-03-18T19:21:53.342Z,5.68
2023-03-18T19:24:36.979Z,5.70
2023-03-18T19:27:26.762Z,5.95
2023-03-18T19:29:57.569Z,6.05
2023-03-18T19:32:25.716Z,5.20
2023-03-18T19:34:54.698Z,5.22
2023-03-18T19:37:32.456Z,6.00
2023-03-18T19:40:01.804Z,5.22
2023-03-18T19:42:29.741Z,5.75
2023-03-18T19:44:57.519Z,5.30
2023-03-18T19:47:27.414Z,4.88
2023-03-18T19:52:26.366Z,5.60
2023-03-18T19:54:54.392Z,5.20
2023-03-18T19:57:26.969Z,5.70
2023-03-18T19:59:57.411Z,6.53
2023-03-18T20:02:33.919Z,5.18
2023-03-18T20:05:07.555Z,4.88
2023-03-18T20:07:34.613Z,4.75
2023-03-18T20:10:01.514Z,4.97
2023-03-18T20:12:42.790Z,5.18
2023-03-18T20:15:22.852Z,5.15
2023-03-18T20:17:51.767Z,4.78
2023-03-18T20:20:21.778Z,5.18
2023-03-18T20:23:02.765Z,4.55
2023-03-18T20:25:41.057Z,5.15
2023-03-18T20:28:18.922Z,5.20
2023-03-18T20:30:50.722Z,5.22
2023-03-18T20:33:21.107Z,4.75
2023-03-18T20:35:53.419Z,4.13
2023-03-18T20:38:31.595Z,5.05
2023-03-18T20:40:59.307Z,5.07
2023-03-18T20:43:28.293Z,5.18
2023-03-18T20:45:57.946Z,6.43
2023-03-18T20:48:25.411Z,5.70
2023-03-18T20:50:53.415Z,5.78
2023-03-18T20:53:27.402Z,5.70
2023-03-18T20:55:55.831Z,6.03
2023-03-18T20:58:25.770Z,6.30
2023-03-18T21:03:30.032Z,5.93
2023-03-18T21:06:00.156Z,5.40
2023-03-18T21:08:28.059Z,7.28
2023-03-18T21:10:56.632Z,6.07
2023-03-18T21:13:38.891Z,6.88
2023-03-18T21:16:13.289Z,5.78
2023-03-18T21:18:42.299Z,5.97
2023-03-18T21:21:23.342Z,5.88
2023-03-18T21:23:51.613Z,6.13
2023-03-18T21:26:18.650Z,7.22
2023-03-18T21:28:45.845Z,14.40
2023-03-18T21:31:33.072Z,8.65
2023-03-18T21:34:01.083Z,6.65
2023-03-18T21:36:28.187Z,6.10
2023-03-18T21:38:55.445Z,6.35
2023-03-18T21:41:27.990Z,6.55
2023-03-18T21:43:55.366Z,6.43
2023-03-18T21:46:24.612Z,6.70
2023-03-18T21:48:52.237Z,6.93
2023-03-18T21:51:40.345Z,6.75
2023-03-18T21:54:18.054Z,6.78
2023-03-18T21:56:44.994Z,7.05
2023-03-18T21:59:11.884Z,8.40
2023-03-18T22:01:38.920Z,6.45
2023-03-18T22:04:06.113Z,6.10
2023-03-18T22:06:33.938Z,5.95
2023-03-18T22:09:00.994Z,6.40
2023-03-18T22:11:27.992Z,6.25
2023-03-18T22:13:55.243Z,7.07
2023-03-18T22:16:22.612Z,6.75
2023-03-18T22:18:49.637Z,6.07
2023-03-18T22:21:23.425Z,6.60
2023-03-18T22:23:50.982Z,5.78
2023-03-18T22:26:19.956Z,5.65
2023-03-18T22:28:47.857Z,6.68
2023-03-18T22:31:21.348Z,39.55
2023-03-18T22:33:48.458Z,13.38
2023-03-18T22:36:17.314Z,10.05
2023-03-18T22:38:44.806Z,7.97
2023-03-18T22:41:21.521Z,9.27
2023-03-18T22:43:49.780Z,6.72
2023-03-18T22:46:17.440Z,7.45
2023-03-18T22:48:44.436Z,7.85
2023-03-18T22:51:26.420Z,7.70
2023-03-18T22:53:54.369Z,6.70
2023-03-18T22:56:22.715Z,7.07
2023-03-18T22:58:50.383Z,6.13
2023-03-18T23:01:20.995Z,6.35
2023-03-18T23:03:48.858Z,7.15
2023-03-18T23:06:24.830Z,7.05
2023-03-18T23:08:51.871Z,7.35
2023-03-18T23:11:19.059Z,7.38
2023-03-18T23:13:53.200Z,6.25
2023-03-18T23:16:23.125Z,6.60
2023-03-18T23:18:51.389Z,6.10
2023-03-18T23:21:22.520Z,6.65
2023-03-18T23:23:53.267Z,6.07
2023-03-18T23:26:20.960Z,6.47
2023-03-18T23:28:48.971Z,6.78
2023-03-18T23:31:16.551Z,6.35
2023-03-18T23:33:44.372Z,6.18
2023-03-18T23:36:11.850Z,7.30
2023-03-18T23:38:39.044Z,7.10
2023-03-18T23:41:07.176Z,6.80
2023-03-18T23:43:34.159Z,21.10
2023-03-18T23:46:02.230Z,7.03
2023-03-18T23:48:29.397Z,6.78
2023-03-18T23:50:56.319Z,8.25
2023-03-18T23:53:23.394Z,7.90
2023-03-18T23:55:50.642Z,7.93
2023-03-18T23:58:17.687Z,6.65
